Terminal Aerodrome Forecast
Issued by NWS Grand Forks, ND

Home | Current Version | Previous Version | Graphics & Text | Print | Product List | Glossary On
Versions: 1 2 3 4 5 6 7 8 9 10 11 12 13 14 15 16 17 18
760
FTUS43 KFGF 080147 AAA
TAFFAR
TAF AMD
KFAR 080147Z 0802/0824 30020G27KT 3SM -SN BLSN OVC025
     FM080500 31019G27KT P6SM OVC025
     FM081200 32017KT P6SM OVC015
     FM082300 31013KT P6SM BKN025=

USA.gov is the U.S. government's official web portal to all federal, state and local government web resources and services.